Time;durP1;ratioP1;P1;durP2;ratioP2;P2;SDS_P1;SDS_P2;PMS_P1;PMS_P2;Temp;Humidity;BMP_temperature;BMP_pressure;BME280_temperature;BME280_humidity;BME280_pressure;Samples;Min_cycle;Max_cycle;Signal;HPM_P1;HPM_P2
2023/02/17 00:00:27;;;;;;;4.68;3.40;;;13.00;24.90;;;;;;5051094;28;20409;-75
2023/02/17 00:02:57;;;;;;;5.25;3.70;;;;;;;;;;5051108;28;20875;-75
2023/02/17 00:05:23;;;;;;;4.82;3.13;;;12.80;23.50;;;;;;5049320;28;20755;-75
2023/02/17 00:07:48;;;;;;;4.05;3.40;;;12.50;19.90;;;;;;5030637;28;20399;-75
2023/02/17 00:10:14;;;;;;;5.87;4.07;;;13.20;21.10;;;;;;5041607;28;20393;-75
2023/02/17 00:12:40;;;;;;;4.23;3.60;;;13.10;21.30;;;;;;5050919;28;20385;-74
2023/02/17 00:15:06;;;;;;;5.03;3.73;;;12.60;28.40;;;;;;5050752;28;20416;-75
2023/02/17 00:17:32;;;;;;;6.97;4.05;;;12.50;23.00;;;;;;5050091;28;20389;-75
2023/02/17 00:19:58;;;;;;;5.13;3.95;;;;;;;;;;5050608;28;20408;-75
2023/02/17 00:22:23;;;;;;;5.07;3.90;;;12.40;26.80;;;;;;5050672;28;20413;-75
2023/02/17 00:24:49;;;;;;;4.60;3.35;;;12.70;26.90;;;;;;5050111;28;20483;-75
2023/02/17 00:27:15;;;;;;;7.53;4.20;;;12.40;24.90;;;;;;5049998;28;20389;-75
2023/02/17 00:29:41;;;;;;;5.00;3.60;;;12.70;32.70;;;;;;5050378;28;20385;-75
2023/02/17 00:32:09;;;;;;;4.40;3.40;;;12.90;32.80;;;;;;5050398;28;20403;-74
2023/02/17 00:34:34;;;;;;;6.63;3.72;;;12.80;27.70;;;;;;5049703;28;20481;-75
2023/02/17 00:37:00;;;;;;;6.07;3.50;;;12.70;33.80;;;;;;5049910;28;20437;-75
2023/02/17 00:39:26;;;;;;;5.68;3.55;;;;;;;;;;5048766;28;20405;-75
2023/02/17 00:41:51;;;;;;;6.20;3.38;;;12.80;32.70;;;;;;5049079;28;20378;-75
2023/02/17 00:44:19;;;;;;;6.63;3.80;;;12.50;34.00;;;;;;5050690;28;20469;-74
2023/02/17 00:46:46;;;;;;;5.25;3.40;;;12.90;34.40;;;;;;5049793;28;20398;-74
2023/02/17 00:49:24;;;;;;;4.82;3.60;;;13.10;33.80;;;;;;5050160;28;20485;-75
2023/02/17 00:51:50;;;;;;;5.82;3.63;;;12.70;36.90;;;;;;5050227;28;20469;-74
2023/02/17 00:54:16;;;;;;;5.00;3.60;;;12.60;35.50;;;;;;5049997;28;20389;-74
2023/02/17 00:56:42;;;;;;;6.68;3.70;;;13.00;38.00;;;;;;5049830;28;20385;-75
2023/02/17 00:59:09;;;;;;;3.80;3.00;;;12.70;47.10;;;;;;4989615;28;1731544;-75
2023/02/17 01:01:35;;;;;;;6.25;3.08;;;12.60;45.60;;;;;;5049777;28;20400;-74
2023/02/17 01:04:01;;;;;;;4.63;3.00;;;13.20;50.90;;;;;;5050509;28;20397;-74
2023/02/17 01:06:32;;;;;;;4.77;3.10;;;12.70;44.60;;;;;;5048580;28;20843;-74
2023/02/17 01:08:58;;;;;;;4.93;2.80;;;12.70;46.40;;;;;;5050418;28;20397;-74
2023/02/17 01:11:29;;;;;;;5.75;3.70;;;12.70;57.50;;;;;;5050833;28;20377;-74
2023/02/17 01:13:55;;;;;;;5.20;3.00;;;12.50;59.40;;;;;;5050715;28;20381;-75
2023/02/17 01:16:27;;;;;;;4.80;3.30;;;12.60;58.40;;;;;;5054548;28;20394;-74
2023/02/17 01:18:53;;;;;;;3.72;2.72;;;12.80;52.30;;;;;;5049228;28;20394;-74
2023/02/17 01:21:24;;;;;;;4.55;3.30;;;12.50;51.80;;;;;;5050540;28;20401;-75
2023/02/17 01:23:52;;;;;;;5.78;3.53;;;12.70;48.30;;;;;;5050460;28;20385;-74
2023/02/17 01:26:20;;;;;;;8.18;3.15;;;12.70;58.80;;;;;;5050076;28;20444;-75
2023/02/17 01:28:47;;;;;;;7.88;3.80;;;12.90;61.00;;;;;;5049145;28;20417;-73
2023/02/17 01:31:13;;;;;;;6.55;3.30;;;12.60;52.50;;;;;;5050415;28;21017;-74
2023/02/17 01:33:39;;;;;;;6.55;3.63;;;;;;;;;;5050731;28;20394;-74
2023/02/17 01:36:07;;;;;;;4.80;3.10;;;12.90;47.90;;;;;;5048535;28;20393;-74
2023/02/17 01:38:34;;;;;;;7.63;3.35;;;12.70;51.30;;;;;;5048904;28;20411;-74
2023/02/17 01:41:00;;;;;;;5.82;3.10;;;12.60;52.40;;;;;;5050876;28;20910;-74
2023/02/17 01:43:26;;;;;;;3.05;2.60;;;12.60;52.70;;;;;;5050417;28;20420;-74
2023/02/17 01:45:57;;;;;;;4.25;3.05;;;11.60;52.20;;;;;;5049793;28;20472;-75
2023/02/17 01:48:37;;;;;;;4.88;3.20;;;12.90;55.30;;;;;;5050197;28;20385;-74
2023/02/17 01:51:15;;;;;;;4.45;2.67;;;12.80;63.10;;;;;;5049714;28;20890;-74
2023/02/17 01:53:46;;;;;;;7.72;3.25;;;12.40;65.30;;;;;;5049743;28;20404;-73
2023/02/17 01:56:14;;;;;;;4.75;3.38;;;12.80;57.20;;;;;;5049845;28;20459;-74
2023/02/17 01:58:43;;;;;;;5.50;3.00;;;12.90;60.80;;;;;;5049800;28;20770;-74
2023/02/17 02:01:09;;;;;;;3.58;2.60;;;;;;;;;;5048669;28;20917;-75
2023/02/17 02:03:36;;;;;;;4.63;3.00;;;12.50;55.70;;;;;;5049927;28;20425;-75
2023/02/17 02:06:07;;;;;;;4.20;3.00;;;12.90;57.70;;;;;;5046809;28;20817;-75
2023/02/17 02:08:43;;;;;;;7.40;3.53;;;12.60;57.00;;;;;;5030491;28;20510;-75
2023/02/17 02:11:09;;;;;;;5.90;3.30;;;12.70;56.20;;;;;;5030195;28;20387;-74
2023/02/17 02:13:34;;;;;;;5.33;3.40;;;12.90;56.80;;;;;;5040074;28;20449;-75
2023/02/17 02:16:17;;;;;;;5.10;3.10;;;12.50;65.20;;;;;;5049520;28;20890;-75
2023/02/17 02:18:58;;;;;;;5.30;3.22;;;12.70;55.20;;;;;;5049799;28;20378;-75
2023/02/17 02:21:27;;;;;;;3.65;3.22;;;12.60;54.20;;;;;;5049796;28;20883;-75
2023/02/17 02:23:57;;;;;;;6.45;2.95;;;12.60;51.00;;;;;;5049777;28;20398;-75
2023/02/17 02:26:50;;;;;;;3.20;2.63;;;12.30;54.90;;;;;;5048454;28;20382;-75
2023/02/17 02:29:53;;;;;;;5.28;2.85;;;12.90;56.30;;;;;;5049653;28;20370;-74
2023/02/17 02:32:35;;;;;;;3.33;2.70;;;12.20;56.00;;;;;;5049688;28;20849;-76
2023/02/17 02:35:08;;;;;;;5.20;3.08;;;12.60;53.50;;;;;;5049478;28;20385;-75
2023/02/17 02:37:39;;;;;;;5.18;3.20;;;12.60;61.10;;;;;;5048128;28;20894;-74
2023/02/17 02:40:07;;;;;;;4.07;2.97;;;12.50;59.30;;;;;;5048384;28;20420;-72
2023/02/17 02:42:34;;;;;;;3.90;2.78;;;12.80;55.90;;;;;;5049469;28;20397;-74
2023/02/17 02:45:00;;;;;;;4.13;2.83;;;12.00;56.40;;;;;;5049617;28;20400;-75
2023/02/17 02:47:54;;;;;;;4.77;3.20;;;12.60;57.20;;;;;;5049399;28;20385;-73
2023/02/17 02:50:54;;;;;;;5.43;2.80;;;12.30;57.20;;;;;;5051124;28;20381;-73
2023/02/17 02:53:25;;;;;;;3.63;2.67;;;;;;;;;;5029876;28;20399;-73
2023/02/17 02:56:07;;;;;;;4.32;3.10;;;12.70;60.90;;;;;;5029484;28;20395;-74
2023/02/17 02:58:51;;;;;;;4.18;3.10;;;;;;;;;;5029324;28;20395;-74
2023/02/17 03:01:40;;;;;;;3.90;3.10;;;13.00;58.00;;;;;;5047491;28;20976;-73
2023/02/17 03:04:37;;;;;;;4.65;3.03;;;12.30;59.90;;;;;;5051296;28;20488;-73
2023/02/17 03:07:06;;;;;;;3.40;2.70;;;12.20;55.70;;;;;;5040486;28;20411;-74
2023/02/17 03:09:32;;;;;;;3.95;2.75;;;12.40;63.60;;;;;;5033089;28;20427;-73
2023/02/17 03:11:58;;;;;;;4.85;3.25;;;10.60;56.60;;;;;;5041809;28;20429;-74
2023/02/17 03:14:25;;;;;;;5.82;2.88;;;12.10;55.10;;;;;;5052944;28;20823;-74
2023/02/17 03:16:51;;;;;;;3.77;2.60;;;12.50;57.20;;;;;;5052764;28;20811;-73
2023/02/17 03:19:20;;;;;;;3.10;2.80;;;12.60;57.90;;;;;;5052597;28;20409;-73
2023/02/17 03:22:00;;;;;;;3.88;2.58;;;12.50;61.50;;;;;;5052741;28;20408;-73
2023/02/17 03:24:26;;;;;;;3.70;2.53;;;12.60;62.90;;;;;;5063012;28;20390;-74
2023/02/17 03:26:51;;;;;;;3.70;2.03;;;12.30;65.30;;;;;;5052595;28;20370;-73
2023/02/17 03:29:17;;;;;;;3.85;2.20;;;12.30;64.90;;;;;;5052602;28;20392;-73
2023/02/17 03:31:43;;;;;;;3.45;2.20;;;;;;;;;;5051200;28;20735;-73
2023/02/17 03:34:08;;;;;;;2.50;1.70;;;12.20;66.40;;;;;;5052376;28;20481;-73
2023/02/17 03:36:34;;;;;;;3.38;2.00;;;14.70;68.80;;;;;;5052087;28;20389;-74
2023/02/17 03:38:59;;;;;;;3.50;2.00;;;12.20;76.40;;;;;;5052377;28;20461;-74
2023/02/17 03:41:25;;;;;;;4.33;2.00;;;12.00;77.20;;;;;;5052446;28;20783;-73
2023/02/17 03:43:51;;;;;;;3.03;1.90;;;13.00;66.10;;;;;;5052527;28;20536;-73
2023/02/17 03:46:17;;;;;;;4.18;2.50;;;12.10;64.30;;;;;;5051756;28;20385;-73
2023/02/17 03:48:43;;;;;;;3.50;2.00;;;12.00;61.20;;;;;;5052335;28;20377;-74
2023/02/17 03:51:20;;;;;;;3.95;2.40;;;12.40;57.90;;;;;;5052212;28;20440;-74
2023/02/17 03:53:47;;;;;;;4.50;3.40;;;12.20;68.60;;;;;;5052266;28;20539;-73
2023/02/17 03:56:13;;;;;;;5.20;2.78;;;12.10;59.80;;;;;;5052037;28;20742;-76
2023/02/17 03:58:40;;;;;;;4.85;2.60;;;12.00;56.40;;;;;;5052111;28;20406;-73
2023/02/17 04:01:07;;;;;;;6.18;3.10;;;12.10;61.70;;;;;;5051909;28;20764;-73
2023/02/17 04:03:33;;;;;;;4.75;2.90;;;12.00;59.40;;;;;;5052293;28;20392;-74
2023/02/17 04:05:59;;;;;;;4.18;3.17;;;12.70;66.70;;;;;;5048096;28;20441;-74
2023/02/17 04:08:25;;;;;;;3.47;3.10;;;12.50;64.50;;;;;;5038143;28;20393;-74
2023/02/17 04:10:53;;;;;;;4.33;3.50;;;12.20;56.00;;;;;;5051791;28;20469;-73
2023/02/17 04:13:18;;;;;;;4.15;3.00;;;12.50;54.70;;;;;;5050555;28;20386;-73
2023/02/17 04:15:44;;;;;;;6.33;3.60;;;12.00;53.30;;;;;;5050970;28;20385;-74
2023/02/17 04:18:09;;;;;;;4.07;3.50;;;12.40;51.30;;;;;;5051669;28;20484;-73
2023/02/17 04:20:35;;;;;;;3.42;3.13;;;12.00;51.80;;;;;;5051722;28;20847;-74
2023/02/17 04:23:00;;;;;;;6.80;3.50;;;12.30;57.70;;;;;;5050547;28;20382;-73
2023/02/17 04:25:26;;;;;;;4.00;3.10;;;;;;;;;;5051314;28;20451;-74
2023/02/17 04:27:52;;;;;;;9.63;4.23;;;12.60;53.80;;;;;;5050129;28;20796;-74
2023/02/17 04:30:17;;;;;;;5.00;4.20;;;12.60;62.60;;;;;;5051604;28;20813;-73
2023/02/17 04:32:43;;;;;;;5.97;4.50;;;;;;;;;;5050534;28;20488;-73
2023/02/17 04:35:08;;;;;;;5.30;3.70;;;12.30;55.40;;;;;;5051510;28;20890;-73
2023/02/17 04:37:34;;;;;;;6.32;4.40;;;12.00;62.60;;;;;;5051110;28;20392;-73
2023/02/17 04:39:59;;;;;;;8.13;3.90;;;12.40;55.10;;;;;;5051515;28;20441;-73
2023/02/17 04:42:25;;;;;;;7.53;4.17;;;12.30;62.30;;;;;;5051572;28;20389;-74
2023/02/17 04:44:51;;;;;;;6.93;4.40;;;12.10;54.10;;;;;;5051521;28;20370;-74
2023/02/17 04:47:16;;;;;;;4.47;3.90;;;12.20;55.00;;;;;;5051387;28;20382;-73
2023/02/17 04:49:42;;;;;;;8.20;4.10;;;12.20;51.80;;;;;;5051215;28;20389;-73
2023/02/17 04:52:07;;;;;;;5.90;4.17;;;12.00;52.40;;;;;;5051230;28;20882;-73
2023/02/17 04:54:33;;;;;;;9.60;4.30;;;11.80;60.40;;;;;;5050045;28;20416;-73
2023/02/17 04:56:58;;;;;;;4.38;3.38;;;12.20;53.90;;;;;;5050978;28;20464;-73
2023/02/17 04:59:24;;;;;;;5.40;3.97;;;11.90;53.00;;;;;;5050860;28;20436;-74
2023/02/17 05:01:50;;;;;;;7.57;3.80;;;12.20;54.70;;;;;;5051066;28;20476;-75
2023/02/17 05:04:15;;;;;;;5.13;3.95;;;12.00;54.90;;;;;;5049887;28;20416;-74
2023/02/17 05:06:41;;;;;;;4.90;4.10;;;11.60;63.70;;;;;;5041377;28;21044;-73
2023/02/17 05:09:06;;;;;;;4.80;3.40;;;12.30;64.00;;;;;;5041510;28;20557;-75
2023/02/17 05:11:32;;;;;;;5.22;3.92;;;12.20;58.70;;;;;;5051004;28;20385;-74
2023/02/17 05:13:57;;;;;;;7.37;4.23;;;12.00;56.10;;;;;;5051000;28;20412;-74
2023/02/17 05:16:23;;;;;;;6.73;3.90;;;12.40;56.20;;;;;;5050547;28;20446;-74
2023/02/17 05:18:48;;;;;;;9.75;4.60;;;11.80;55.30;;;;;;5050576;28;20427;-74
2023/02/17 05:21:14;;;;;;;4.80;3.95;;;12.10;56.20;;;;;;5050407;28;20409;-73
2023/02/17 05:23:40;;;;;;;5.73;4.20;;;11.60;65.10;;;;;;5049667;28;20415;-73
2023/02/17 05:26:07;;;;;;;5.20;4.60;;;11.80;55.80;;;;;;5049879;28;20451;-73
2023/02/17 05:28:34;;;;;;;5.22;4.15;;;12.20;53.90;;;;;;5051045;28;20385;-73
2023/02/17 05:31:00;;;;;;;5.97;4.43;;;11.70;56.10;;;;;;5050640;28;20425;-74
2023/02/17 05:33:25;;;;;;;5.45;4.30;;;12.20;55.60;;;;;;5065553;28;20407;-75
2023/02/17 05:35:51;;;;;;;8.90;4.70;;;;;;;;;;5050262;28;20817;-73
2023/02/17 05:38:17;;;;;;;7.23;3.90;;;;;;;;;;5050022;28;20397;-76
2023/02/17 05:40:43;;;;;;;7.70;4.80;;;11.80;51.40;;;;;;5050355;28;20413;-74
2023/02/17 05:43:08;;;;;;;6.27;4.47;;;12.10;56.90;;;;;;5049459;28;20476;-74
2023/02/17 05:45:34;;;;;;;7.97;4.30;;;11.80;68.40;;;;;;5050251;28;20460;-74
2023/02/17 05:47:59;;;;;;;8.30;4.40;;;11.50;57.70;;;;;;5049679;28;20831;-74
2023/02/17 05:50:25;;;;;;;7.33;4.47;;;11.50;58.70;;;;;;5050458;28;20441;-73
2023/02/17 05:52:51;;;;;;;8.88;4.68;;;11.50;66.70;;;;;;5048959;28;20397;-73
2023/02/17 05:55:16;;;;;;;7.07;4.43;;;11.60;60.90;;;;;;5050169;28;20400;-74
2023/02/17 05:57:42;;;;;;;5.80;4.50;;;11.80;61.00;;;;;;5050212;28;20858;-74
2023/02/17 06:00:08;;;;;;;6.50;4.67;;;;;;;;;;5050817;28;20409;-73
2023/02/17 06:02:34;;;;;;;6.95;5.00;;;12.00;56.70;;;;;;5050424;28;20389;-74
2023/02/17 06:04:59;;;;;;;9.30;5.47;;;11.60;69.00;;;;;;5050699;28;20824;-73
2023/02/17 06:07:25;;;;;;;7.17;4.90;;;;;;;;;;5037682;28;20475;-74
2023/02/17 06:09:50;;;;;;;12.13;5.73;;;12.10;56.10;;;;;;5050343;28;20436;-74
2023/02/17 06:12:16;;;;;;;5.83;4.83;;;11.90;72.00;;;;;;5048909;28;20389;-73
2023/02/17 06:14:41;;;;;;;7.20;4.80;;;11.50;60.80;;;;;;5050271;28;20373;-74
2023/02/17 06:17:07;;;;;;;5.32;4.82;;;11.40;68.10;;;;;;5049647;28;20798;-74
2023/02/17 06:19:33;;;;;;;8.73;4.90;;;11.80;61.60;;;;;;5050285;28;20897;-74
2023/02/17 06:21:58;;;;;;;8.13;4.87;;;11.70;62.30;;;;;;5050177;28;20385;-74
2023/02/17 06:24:24;;;;;;;6.70;4.70;;;11.30;73.70;;;;;;5050101;28;20573;-73
2023/02/17 06:26:49;;;;;;;7.30;5.57;;;11.80;62.90;;;;;;5049855;28;20394;-73
2023/02/17 06:29:15;;;;;;;6.97;4.68;;;11.50;63.10;;;;;;5050157;28;20389;-73
2023/02/17 06:31:40;;;;;;;7.80;5.00;;;11.90;70.10;;;;;;5050056;28;20385;-73
2023/02/17 06:34:06;;;;;;;5.30;4.00;;;11.10;74.30;;;;;;5050731;28;20408;-74
2023/02/17 06:36:31;;;;;;;6.83;3.40;;;11.70;92.00;;;;;;5051271;28;20389;-74
2023/02/17 06:38:57;;;;;;;5.50;3.58;;;11.40;92.20;;;;;;5054643;28;20489;-74
2023/02/17 06:41:22;;;;;;;7.57;4.55;;;11.30;95.50;;;;;;5059539;28;20401;-73
2023/02/17 06:43:48;;;;;;;5.73;3.80;;;11.30;92.80;;;;;;5060873;28;20397;-74
2023/02/17 06:46:14;;;;;;;6.57;3.50;;;;;;;;;;5059892;28;20401;-74
2023/02/17 06:48:39;;;;;;;5.95;3.50;;;11.10;98.70;;;;;;5060906;28;20448;-74
2023/02/17 06:51:05;;;;;;;5.93;3.60;;;11.10;99.30;;;;;;5056259;28;20401;-73
2023/02/17 06:53:30;;;;;;;5.65;4.00;;;11.50;99.90;;;;;;5053562;28;20397;-73
2023/02/17 06:55:56;;;;;;;6.18;4.00;;;11.30;99.90;;;;;;5053268;28;20390;-74
2023/02/17 06:58:22;;;;;;;7.68;5.10;;;;;;;;;;5053292;28;20770;-74
2023/02/17 07:00:47;;;;;;;7.05;3.60;;;11.60;99.90;;;;;;5054522;28;20412;-73
2023/02/17 07:03:13;;;;;;;3.80;3.50;;;11.80;99.90;;;;;;5054775;28;20386;-74
2023/02/17 07:05:39;;;;;;;5.17;3.40;;;11.70;99.90;;;;;;5052750;28;20470;-74
2023/02/17 07:08:05;;;;;;;3.73;3.10;;;11.60;99.90;;;;;;5040654;28;20389;-74
2023/02/17 07:10:31;;;;;;;4.45;3.03;;;11.20;99.90;;;;;;5053658;28;20389;-73
2023/02/17 07:12:57;;;;;;;4.82;3.00;;;;;;;;;;5053475;28;20728;-74
2023/02/17 07:15:23;;;;;;;6.10;2.80;;;11.70;99.90;;;;;;5053226;28;20421;-74
2023/02/17 07:17:48;;;;;;;4.87;2.77;;;11.70;99.90;;;;;;5052909;28;20405;-73
2023/02/17 07:20:14;;;;;;;4.43;3.03;;;;;;;;;;5053084;28;20402;-74
2023/02/17 07:22:40;;;;;;;5.07;3.30;;;11.20;99.90;;;;;;5053036;28;20381;-73
2023/02/17 07:25:06;;;;;;;4.40;3.50;;;11.40;99.90;;;;;;5051468;28;20459;-73
2023/02/17 07:27:34;;;;;;;6.35;3.65;;;11.20;99.90;;;;;;5052684;28;20484;-73
2023/02/17 07:30:00;;;;;;;6.20;3.80;;;;;;;;;;5051673;28;20791;-73
2023/02/17 07:32:26;;;;;;;5.57;3.47;;;11.10;99.90;;;;;;5052970;28;20443;-74
2023/02/17 07:34:51;;;;;;;5.27;3.70;;;11.20;99.90;;;;;;5052874;28;20446;-73
2023/02/17 07:37:20;;;;;;;6.00;4.30;;;11.30;99.90;;;;;;5052370;28;21072;-74
2023/02/17 07:39:46;;;;;;;5.22;3.75;;;11.60;99.90;;;;;;5052492;28;20409;-74
2023/02/17 07:42:12;;;;;;;8.37;4.40;;;11.50;99.90;;;;;;5052677;28;20405;-73
2023/02/17 07:44:37;;;;;;;8.77;4.77;;;11.50;99.90;;;;;;5052514;28;20416;-74
2023/02/17 07:47:03;;;;;;;5.80;4.10;;;11.60;99.90;;;;;;5050914;28;20377;-74
2023/02/17 07:49:29;;;;;;;6.15;3.92;;;11.60;99.90;;;;;;5051315;28;20540;-73
2023/02/17 07:51:54;;;;;;;7.07;4.50;;;11.10;99.90;;;;;;5052191;28;20389;-74
2023/02/17 07:54:20;;;;;;;7.88;4.40;;;11.20;99.90;;;;;;5052411;28;20426;-74
2023/02/17 07:56:45;;;;;;;4.95;4.05;;;11.40;99.90;;;;;;5050687;28;20477;-74
2023/02/17 07:59:12;;;;;;;5.00;4.20;;;11.30;99.90;;;;;;5052193;28;20393;-74
2023/02/17 08:01:38;;;;;;;6.95;4.75;;;11.00;99.90;;;;;;5052118;28;20424;-74
2023/02/17 08:04:04;;;;;;;8.43;4.70;;;11.20;99.90;;;;;;5050929;28;20386;-74
2023/02/17 08:06:30;;;;;;;10.00;4.30;;;11.30;99.90;;;;;;5051425;28;20810;-73
2023/02/17 08:14:27;;;;;;;6.65;4.30;;;11.50;99.90;;;;;;5052141;28;20438;-73
2023/02/17 08:16:53;;;;;;;5.90;3.90;;;11.10;99.90;;;;;;5051694;28;20392;-72
2023/02/17 08:19:19;;;;;;;5.80;4.28;;;11.40;99.90;;;;;;5051576;28;20404;-73
2023/02/17 08:21:45;;;;;;;7.20;4.82;;;11.40;99.90;;;;;;5051426;28;20393;-73
2023/02/17 08:24:11;;;;;;;8.23;4.80;;;11.00;99.90;;;;;;5051835;28;20414;-73
2023/02/17 08:26:37;;;;;;;4.43;3.90;;;11.10;99.90;;;;;;5052710;28;20486;-74
2023/02/17 08:29:02;;;;;;;8.20;4.13;;;11.10;99.90;;;;;;5053025;28;20384;-75
2023/02/17 08:31:31;;;;;;;5.90;3.50;;;11.10;99.90;;;;;;5051652;28;20381;-74
2023/02/17 08:33:59;;;;;;;6.43;4.20;;;11.30;99.90;;;;;;5052765;28;20475;-75
2023/02/17 08:36:24;;;;;;;6.60;3.37;;;11.90;99.90;;;;;;5050838;28;20451;-74
2023/02/17 08:38:52;;;;;;;5.37;3.50;;;11.50;99.90;;;;;;5050330;28;20397;-74
2023/02/17 08:41:47;;;;;;;5.43;3.50;;;;;;;;;;5051771;28;20419;-73
2023/02/17 08:44:16;;;;;;;6.10;3.80;;;11.40;99.90;;;;;;5051716;28;20886;-75
2023/02/17 08:46:42;;;;;;;5.00;3.30;;;11.40;99.90;;;;;;5051127;28;20374;-74
2023/02/17 08:49:08;;;;;;;4.90;3.70;;;11.30;99.90;;;;;;5051035;28;20468;-74
2023/02/17 08:51:35;;;;;;;6.60;3.38;;;11.40;99.90;;;;;;5050052;28;20481;-73
2023/02/17 08:54:01;;;;;;;4.70;3.50;;;11.30;99.90;;;;;;5051436;28;20382;-74
2023/02/17 08:56:27;;;;;;;7.45;4.43;;;11.40;99.90;;;;;;5051057;28;20463;-73
2023/02/17 08:58:53;;;;;;;6.75;3.30;;;10.60;99.90;;;;;;5049376;28;20948;-74
2023/02/17 09:01:20;;;;;;;4.85;3.33;;;;;;;;;;5051202;28;20500;-74
2023/02/17 09:03:47;;;;;;;5.18;4.20;;;11.10;99.90;;;;;;5050985;28;20385;-76
2023/02/17 09:06:14;;;;;;;5.47;3.70;;;10.50;99.90;;;;;;5045476;28;20387;-73
2023/02/17 09:08:40;;;;;;;3.80;3.40;;;11.10;99.90;;;;;;5031095;28;20386;-73
2023/02/17 09:11:07;;;;;;;5.18;3.30;;;10.90;99.90;;;;;;5031289;28;20410;-74
2023/02/17 09:13:33;;;;;;;5.75;3.70;;;11.00;99.90;;;;;;5046121;28;20404;-75
2023/02/17 09:15:58;;;;;;;5.43;3.40;;;11.20;99.90;;;;;;5050560;28;20400;-74
2023/02/17 09:18:24;;;;;;;7.60;4.50;;;10.80;99.90;;;;;;5050788;28;20382;-74
2023/02/17 09:20:50;;;;;;;7.85;4.10;;;10.50;99.90;;;;;;5049497;28;20478;-73
2023/02/17 09:23:17;;;;;;;6.40;3.85;;;11.30;99.90;;;;;;5050899;28;20385;-74
2023/02/17 09:25:43;;;;;;;7.15;3.63;;;10.60;99.90;;;;;;5050266;28;20389;-74
2023/02/17 09:28:09;;;;;;;4.43;3.47;;;10.80;99.90;;;;;;5050385;28;20755;-73
2023/02/17 09:30:35;;;;;;;5.95;3.88;;;11.00;99.90;;;;;;5050763;28;20385;-74
2023/02/17 09:33:01;;;;;;;4.57;3.45;;;11.40;99.90;;;;;;5049340;28;20883;-73
2023/02/17 09:35:27;;;;;;;4.30;3.20;;;11.00;99.90;;;;;;5050565;28;20440;-73
2023/02/17 09:37:52;;;;;;;5.07;3.60;;;10.90;99.90;;;;;;5050292;28;20423;-74
2023/02/17 09:40:49;;;;;;;3.70;3.40;;;10.80;99.90;;;;;;5051573;28;20405;-74
2023/02/17 09:43:21;;;;;;;4.03;3.50;;;11.60;99.90;;;;;;5049747;28;20465;-73
2023/02/17 09:45:51;;;;;;;5.40;3.10;;;10.50;99.90;;;;;;5050366;28;20378;-74
2023/02/17 09:48:20;;;;;;;4.35;3.30;;;11.20;99.90;;;;;;5049111;28;20389;-73
2023/02/17 09:50:58;;;;;;;5.00;2.90;;;11.60;99.90;;;;;;5049045;28;20919;-73
2023/02/17 09:53:45;;;;;;;5.75;2.90;;;11.70;99.90;;;;;;5050555;28;20390;-73
2023/02/17 09:56:17;;;;;;;4.75;2.65;;;11.40;99.90;;;;;;5050214;28;20390;-71
2023/02/17 09:58:50;;;;;;;4.63;2.40;;;11.50;99.90;;;;;;5049870;28;20429;-73
2023/02/17 10:01:19;;;;;;;3.88;2.40;;;11.60;99.90;;;;;;5050111;28;20488;-74
2023/02/17 10:03:54;;;;;;;2.50;2.30;;;11.60;99.90;;;;;;5050797;28;20389;-74
2023/02/17 10:06:50;;;;;;;5.72;2.65;;;11.70;99.90;;;;;;5044185;28;20445;-75
2023/02/17 10:09:54;;;;;;;3.63;2.03;;;11.90;99.90;;;;;;5030633;28;20433;-74
2023/02/17 10:12:29;;;;;;;5.47;2.40;;;11.40;99.90;;;;;;4964389;28;20407;-74
2023/02/17 10:15:03;;;;;;;2.70;1.90;;;11.90;99.90;;;;;;4973664;28;20542;-74
2023/02/17 10:17:39;;;;;;;3.30;2.30;;;11.70;99.90;;;;;;5008250;28;20417;-73
2023/02/17 10:20:18;;;;;;;3.10;2.10;;;12.20;99.90;;;;;;5034370;28;20410;-73
2023/02/17 10:22:48;;;;;;;2.33;2.07;;;12.80;99.90;;;;;;5034559;28;20908;-73
2023/02/17 10:25:17;;;;;;;4.70;2.20;;;12.10;99.90;;;;;;5034192;28;20408;-73
2023/02/17 10:27:57;;;;;;;2.42;1.90;;;12.10;99.90;;;;;;5051189;28;20397;-74
2023/02/17 10:30:29;;;;;;;3.55;2.28;;;12.20;99.90;;;;;;5054735;28;20400;-74
2023/02/17 10:33:11;;;;;;;3.10;2.17;;;11.80;99.90;;;;;;5054363;28;20399;-74
2023/02/17 10:36:12;;;;;;;3.63;2.10;;;12.20;99.90;;;;;;5052423;28;20447;-74
2023/02/17 10:39:20;;;;;;;4.68;2.00;;;11.70;99.90;;;;;;5030134;28;20412;-74
2023/02/17 10:41:48;;;;;;;2.55;2.30;;;11.90;99.90;;;;;;5011963;28;20787;-75
2023/02/17 10:44:18;;;;;;;2.60;2.08;;;11.60;99.90;;;;;;5047410;28;20397;-74
2023/02/17 10:46:47;;;;;;;3.63;2.20;;;11.90;99.90;;;;;;5053612;28;20442;-73
2023/02/17 10:49:36;;;;;;;2.88;2.50;;;12.20;99.90;;;;;;5052124;28;20440;-73
2023/02/17 10:52:19;;;;;;;3.20;2.20;;;12.70;99.90;;;;;;5053922;28;20767;-74
2023/02/17 10:55:16;;;;;;;2.78;2.20;;;11.90;99.90;;;;;;5052463;28;20442;-74
2023/02/17 10:57:44;;;;;;;2.30;1.90;;;12.30;99.90;;;;;;5049748;28;20466;-74
2023/02/17 11:00:17;;;;;;;2.67;2.03;;;11.90;99.90;;;;;;5053503;28;20559;-73
2023/02/17 11:02:45;;;;;;;3.08;1.75;;;12.20;99.90;;;;;;5053118;28;20937;-73
2023/02/17 11:05:27;;;;;;;3.28;1.90;;;12.60;99.90;;;;;;5053494;28;20401;-73
2023/02/17 11:08:18;;;;;;;2.45;2.22;;;11.80;99.90;;;;;;5034140;28;20399;-73
2023/02/17 11:10:44;;;;;;;3.40;2.40;;;12.40;99.90;;;;;;5033401;28;20390;-75
2023/02/17 11:13:34;;;;;;;3.17;1.80;;;12.00;99.90;;;;;;5051989;28;20895;-73
2023/02/17 11:16:01;;;;;;;2.60;2.07;;;11.80;99.90;;;;;;5053005;28;20393;-73
2023/02/17 11:18:37;;;;;;;2.65;2.17;;;12.10;99.90;;;;;;5053123;28;20622;-73
2023/02/17 11:21:10;;;;;;;2.22;1.95;;;13.40;99.90;;;;;;5051829;28;20440;-72
2023/02/17 11:23:47;;;;;;;3.47;2.80;;;12.40;99.90;;;;;;5052453;28;20384;-73
2023/02/17 11:26:24;;;;;;;2.80;1.80;;;12.40;99.90;;;;;;5032479;28;20379;-73
2023/02/17 11:28:50;;;;;;;2.53;1.80;;;12.20;99.90;;;;;;5032735;28;20911;-73
2023/02/17 11:31:30;;;;;;;2.40;1.80;;;12.10;99.90;;;;;;5037593;28;20401;-72
2023/02/17 11:33:55;;;;;;;3.00;2.10;;;12.50;99.90;;;;;;5051518;28;20406;-73
2023/02/17 11:36:27;;;;;;;2.63;2.00;;;12.30;99.90;;;;;;5052652;28;20534;-73
2023/02/17 11:38:53;;;;;;;4.45;2.00;;;12.30;99.90;;;;;;5051239;28;20752;-74
2023/02/17 11:41:19;;;;;;;6.20;2.60;;;;;;;;;;5052451;28;20484;-74
2023/02/17 11:43:59;;;;;;;2.60;1.90;;;11.90;99.90;;;;;;5052865;28;20400;-74
2023/02/17 11:47:04;;;;;;;2.30;2.10;;;11.80;99.90;;;;;;5052400;28;20385;-74
2023/02/17 11:49:49;;;;;;;3.10;2.20;;;13.00;99.90;;;;;;5029355;28;20397;-73
2023/02/17 11:52:26;;;;;;;2.33;2.10;;;12.90;99.90;;;;;;5055334;28;20408;-74
2023/02/17 11:55:10;;;;;;;2.75;2.03;;;12.40;99.90;;;;;;5053064;28;20390;-73
2023/02/17 11:57:44;;;;;;;3.05;2.20;;;12.00;99.90;;;;;;5032930;28;20471;-74
2023/02/17 12:00:21;;;;;;;2.38;1.90;;;12.80;99.90;;;;;;5032633;28;20426;-74
2023/02/17 12:03:01;;;;;;;3.67;2.17;;;13.00;99.90;;;;;;5031251;28;20418;-73
2023/02/17 12:05:26;;;;;;;4.70;1.80;;;12.90;99.90;;;;;;5035368;28;20400;-74
2023/02/17 12:08:11;;;;;;;3.80;1.60;;;;;;;;;;5033019;28;20384;-74
2023/02/17 12:10:41;;;;;;;2.60;1.90;;;12.70;99.90;;;;;;5052969;28;20412;-74
2023/02/17 12:13:39;;;;;;;3.95;2.70;;;13.00;99.90;;;;;;5052848;28;20389;-74
2023/02/17 12:16:30;;;;;;;3.07;1.90;;;13.00;99.90;;;;;;4998371;28;20399;-74
2023/02/17 12:19:14;;;;;;;3.10;1.80;;;12.60;99.90;;;;;;5052120;28;20385;-74
2023/02/17 12:21:48;;;;;;;2.20;2.00;;;12.80;99.90;;;;;;5050481;28;20954;-73
2023/02/17 12:24:39;;;;;;;2.75;2.08;;;12.50;99.90;;;;;;5050640;28;20795;-72
2023/02/17 12:27:42;;;;;;;4.07;2.35;;;12.60;99.90;;;;;;5051507;28;20435;-73
2023/02/17 12:30:23;;;;;;;3.38;2.33;;;12.50;99.90;;;;;;5050316;28;20429;-72
2023/02/17 12:33:01;;;;;;;3.47;2.20;;;12.60;99.90;;;;;;5051643;28;20492;-73
2023/02/17 12:35:40;;;;;;;2.10;1.90;;;12.80;99.90;;;;;;5049698;28;20402;-72
2023/02/17 12:38:17;;;;;;;2.95;2.20;;;12.40;99.90;;;;;;5050387;28;20463;-74
2023/02/17 12:40:59;;;;;;;4.70;2.20;;;12.50;99.90;;;;;;5049934;28;20428;-73
2023/02/17 12:43:48;;;;;;;4.57;2.33;;;12.80;99.90;;;;;;5052045;28;20439;-74
2023/02/17 12:46:22;;;;;;;3.90;2.50;;;12.40;99.90;;;;;;5051302;28;20395;-73
2023/02/17 12:48:55;;;;;;;2.80;2.40;;;12.30;99.90;;;;;;5051627;28;20381;-74
2023/02/17 12:51:50;;;;;;;4.40;2.13;;;12.50;99.90;;;;;;5051549;28;20397;-73
2023/02/17 12:54:22;;;;;;;3.10;2.20;;;;;;;;;;5051711;28;20386;-74
2023/02/17 12:56:54;;;;;;;2.25;2.05;;;;;;;;;;5049940;28;21012;-72
2023/02/17 12:59:33;;;;;;;2.35;1.90;;;12.60;99.90;;;;;;5051174;28;20402;-72
2023/02/17 13:02:11;;;;;;;2.63;1.98;;;12.60;99.90;;;;;;5051359;28;20385;-72
2023/02/17 13:04:41;;;;;;;3.50;2.30;;;12.90;99.90;;;;;;5051230;28;20461;-73
2023/02/17 13:07:31;;;;;;;3.37;2.50;;;12.60;99.90;;;;;;5044609;28;20485;-73
2023/02/17 13:09:57;;;;;;;3.17;2.60;;;12.80;99.90;;;;;;5052564;28;20397;-73
2023/02/17 13:12:23;;;;;;;2.43;2.00;;;12.90;99.90;;;;;;5051254;28;20441;-73
2023/02/17 13:14:49;;;;;;;3.73;2.40;;;13.30;99.90;;;;;;5051045;28;20783;-72
2023/02/17 13:17:25;;;;;;;3.95;2.60;;;13.10;99.90;;;;;;5049769;28;20397;-73